Time;durP1;ratioP1;P1;durP2;ratioP2;P2;SDS_P1;SDS_P2;PMS_P1;PMS_P2;Temp;Humidity;BMP_temperature;BMP_pressure;BME280_temperature;BME280_humidity;BME280_pressure;Samples;Min_cycle;Max_cycle;Signal;HPM_P1;HPM_P2
2022/11/16 00:01:15;;;;;;;252.10;121.07;;;;;;;5.54;100.00;94405.84;5062137;28;20208;-78
2022/11/16 00:03:43;;;;;;;263.80;123.07;;;;;;;5.49;100.00;94400.47;5063663;28;20651;-79
2022/11/16 00:06:12;;;;;;;270.17;127.97;;;;;;;5.48;100.00;94393.75;5061842;28;20193;-76
2022/11/16 00:08:41;;;;;;;260.83;125.83;;;;;;;5.40;100.00;94392.09;5062065;28;20202;-77
2022/11/16 00:11:10;;;;;;;255.97;126.90;;;;;;;5.48;100.00;94399.66;5062130;28;20719;-77
2022/11/16 00:13:37;;;;;;;262.03;127.03;;;;;;;5.57;100.00;94390.78;5060521;28;20224;-77
2022/11/16 00:16:06;;;;;;;268.70;130.70;;;;;;;5.54;100.00;94382.66;5061029;28;20204;-78
2022/11/16 00:18:33;;;;;;;261.63;126.50;;;;;;;5.65;100.00;94388.06;5060845;28;20196;-77
2022/11/16 00:21:03;;;;;;;270.97;130.97;;;;;;;5.72;100.00;94394.00;5064843;28;20299;-77
2022/11/16 00:23:30;;;;;;;273.77;132.23;;;;;;;5.82;100.00;94388.47;5062021;28;20192;-77
2022/11/16 00:26:02;;;;;;;279.10;132.40;;;;;;;5.83;100.00;94384.91;5060582;28;20207;-76
2022/11/16 00:28:29;;;;;;;262.67;129.30;;;;;;;5.69;100.00;94371.19;5061102;28;20204;-77
2022/11/16 00:30:59;;;;;;;270.50;127.57;;;;;;;5.77;100.00;94382.31;5060222;28;20651;-77
2022/11/16 00:33:26;;;;;;;258.07;128.03;;;;;;;5.72;100.00;94383.69;5062683;28;20291;-78
2022/11/16 00:35:53;;;;;;;259.10;126.07;;;;;;;5.73;100.00;94382.72;5062106;28;20687;-77
2022/11/16 00:38:21;;;;;;;254.07;119.50;;;;;;;5.76;100.00;94373.00;5061374;28;20205;-77
2022/11/16 00:40:49;;;;;;;268.90;126.17;;;;;;;5.81;100.00;94374.00;5061119;28;21216;-77
2022/11/16 00:43:16;;;;;;;252.93;120.63;;;;;;;5.75;100.00;94377.34;5062758;28;20868;-79
2022/11/16 00:45:43;;;;;;;242.53;118.20;;;;;;;5.77;100.00;94377.16;5060815;28;20255;-77
2022/11/16 00:48:10;;;;;;;217.10;106.80;;;;;;;5.75;100.00;94374.75;5060978;28;21031;-76
2022/11/16 00:50:38;;;;;;;218.77;104.33;;;;;;;5.77;100.00;94370.22;5059871;28;20224;-77
2022/11/16 00:53:05;;;;;;;207.33;102.17;;;;;;;5.79;100.00;94370.03;5061205;28;20196;-77
2022/11/16 00:55:34;;;;;;;202.40;97.80;;;;;;;5.64;100.00;94352.94;5064849;28;20224;-77
2022/11/16 00:58:00;;;;;;;206.33;98.77;;;;;;;5.66;100.00;94361.25;5064455;28;20284;-76
2022/11/16 01:00:27;;;;;;;203.83;93.57;;;;;;;5.69;100.00;94366.03;5062437;28;20217;-76
2022/11/16 01:02:54;;;;;;;194.13;93.93;;;;;;;5.67;100.00;94351.75;5065373;28;20666;-77
2022/11/16 01:05:24;;;;;;;196.03;93.63;;;;;;;5.68;100.00;94351.53;5066772;28;20200;-76
2022/11/16 01:07:51;;;;;;;193.80;92.73;;;;;;;5.69;100.00;94337.69;5064803;28;20303;-77
2022/11/16 01:10:21;;;;;;;187.27;88.60;;;;;;;5.66;100.00;94340.66;5064350;28;20204;-77
2022/11/16 01:12:49;;;;;;;192.57;92.70;;;;;;;5.64;100.00;94357.28;5063885;28;20208;-77
2022/11/16 01:15:17;;;;;;;196.33;88.47;;;;;;;5.63;100.00;94338.47;5064110;28;20223;-76
2022/11/16 01:17:44;;;;;;;189.73;84.47;;;;;;;5.48;100.00;94329.31;5066213;28;20203;-76
2022/11/16 01:20:14;;;;;;;179.63;83.17;;;;;;;5.51;100.00;94319.38;5064041;28;20560;-75
2022/11/16 01:22:41;;;;;;;179.33;81.47;;;;;;;5.50;100.00;94338.44;5063926;28;21767;-76
2022/11/16 01:25:10;;;;;;;175.80;79.47;;;;;;;5.45;100.00;94338.22;5064548;28;20638;-76
2022/11/16 01:27:37;;;;;;;159.10;79.07;;;;;;;5.41;100.00;94337.03;5065362;28;20208;-76
2022/11/16 01:30:07;;;;;;;169.00;81.50;;;;;;;5.36;100.00;94336.03;5064356;28;20209;-77
2022/11/16 01:32:34;;;;;;;172.80;83.80;;;;;;;5.39;100.00;94339.00;5062758;28;20652;-76
2022/11/16 01:35:01;;;;;;;174.80;85.23;;;;;;;5.46;100.00;94339.81;5064553;28;20224;-76
2022/11/16 01:37:28;;;;;;;185.53;87.20;;;;;;;5.47;100.00;94331.09;5063335;28;20208;-77
2022/11/16 01:39:55;;;;;;;187.57;87.23;;;;;;;5.43;100.00;94329.09;5066267;28;20197;-76
2022/11/16 01:42:25;;;;;;;185.70;89.47;;;;;;;5.42;100.00;94328.31;5062749;28;20216;-77
2022/11/16 01:44:59;;;;;;;195.83;88.13;;;;;;;5.43;100.00;94329.09;5064054;28;20196;-77
2022/11/16 01:47:28;;;;;;;184.40;87.70;;;;;;;5.36;100.00;94334.25;5065349;28;20193;-76
2022/11/16 01:50:02;;;;;;;184.00;89.77;;;;;;;5.38;100.00;94336.59;5066442;28;20223;-76
2022/11/16 01:52:31;;;;;;;183.40;88.37;;;;;;;5.36;100.00;94325.72;5065205;28;20207;-76
2022/11/16 01:54:58;;;;;;;177.47;88.30;;;;;;;5.35;100.00;94327.50;5063143;28;20225;-76
2022/11/16 01:57:31;;;;;;;186.80;90.60;;;;;;;5.25;100.00;94319.34;5063864;28;20204;-76
2022/11/16 01:59:59;;;;;;;189.00;87.13;;;;;;;5.25;100.00;94327.06;5062213;28;20219;-78
2022/11/16 02:02:28;;;;;;;183.23;87.80;;;;;;;5.31;100.00;94322.94;5066267;28;20203;-75
2022/11/16 02:04:57;;;;;;;176.13;89.20;;;;;;;5.36;100.00;94320.56;5064984;28;20192;-76
2022/11/16 02:09:52;;;;;;;182.83;88.03;;;;;;;5.37;100.00;94315.19;5062750;28;20671;-76
2022/11/16 02:10:36;;;;;;;185.73;85.17;;;;;;;5.45;100.00;94301.38;5062255;28;20206;-76
2022/11/16 02:13:28;;;;;;;178.60;83.83;;;;;;;5.42;100.00;94292.25;5062354;28;20207;-76
2022/11/16 02:16:01;;;;;;;164.67;80.87;;;;;;;5.37;100.00;94289.44;5064649;28;20980;-77
2022/11/16 02:18:38;;;;;;;171.63;84.63;;;;;;;5.43;100.00;94296.38;5063893;28;20212;-76
2022/11/16 02:21:25;;;;;;;177.43;82.13;;;;;;;5.42;100.00;94289.66;5064847;28;20206;-78
2022/11/16 02:24:14;;;;;;;165.17;80.93;;;;;;;5.34;100.00;94284.66;5063093;28;20204;-76
2022/11/16 02:27:15;;;;;;;175.37;81.77;;;;;;;5.32;100.00;94293.59;5062178;28;20262;-76
2022/11/16 02:29:47;;;;;;;168.10;81.10;;;;;;;5.29;100.00;94301.69;5063235;28;20200;-77
2022/11/16 02:32:19;;;;;;;168.80;82.10;;;;;;;5.24;100.00;94297.16;5061566;28;20206;-76
2022/11/16 02:34:52;;;;;;;163.80;80.07;;;;;;;5.21;100.00;94307.84;5063200;28;20230;-77
2022/11/16 02:37:23;;;;;;;175.77;79.97;;;;;;;5.18;100.00;94297.13;5065681;28;20200;-80
2022/11/16 02:39:56;;;;;;;173.47;82.47;;;;;;;5.19;100.00;94293.56;5063993;28;20215;-80
2022/11/16 02:42:28;;;;;;;180.00;80.87;;;;;;;5.19;100.00;94296.94;5064750;28;20838;-79
2022/11/16 02:44:59;;;;;;;173.93;81.73;;;;;;;5.13;100.00;94283.06;5066081;28;20203;-79
2022/11/16 02:47:30;;;;;;;181.30;78.97;;;;;;;5.19;100.00;94299.50;5065826;28;20191;-78
2022/11/16 02:50:02;;;;;;;170.10;75.23;;;;;;;5.01;100.00;94281.22;5064509;28;20270;-80
2022/11/16 02:52:29;;;;;;;164.80;74.00;;;;;;;5.03;100.00;94280.03;5066033;28;20188;-80
2022/11/16 02:54:56;;;;;;;165.93;71.70;;;;;;;5.08;100.00;94295.69;5066980;28;20591;-81
2022/11/16 02:57:38;;;;;;;145.27;63.53;;;;;;;5.04;100.00;94291.13;5065481;28;20205;-79
2022/11/16 03:00:10;;;;;;;128.97;57.63;;;;;;;4.99;100.00;94288.34;5065306;28;20550;-80
2022/11/16 03:02:46;;;;;;;120.13;54.47;;;;;;;4.89;100.00;94283.56;5066656;28;20202;-80
2022/11/16 03:05:18;;;;;;;121.43;55.43;;;;;;;4.83;100.00;94286.88;5066502;28;20190;-80
2022/11/16 03:07:49;;;;;;;113.03;55.50;;;;;;;4.78;100.00;94284.09;5064346;28;20193;-79
2022/11/16 03:11:58;;;;;;;125.27;55.53;;;;;;;4.79;100.00;94275.38;5063042;28;20201;-77
2022/11/16 03:13:15;;;;;;;115.23;54.60;;;;;;;4.78;100.00;94267.88;5063600;28;20191;-77
2022/11/16 03:15:44;;;;;;;118.47;53.53;;;;;;;4.73;100.00;94271.03;5063175;28;20227;-77
2022/11/16 03:18:15;;;;;;;117.73;55.07;;;;;;;4.73;100.00;94267.66;5064344;28;20222;-77
2022/11/16 03:20:43;;;;;;;125.83;56.83;;;;;;;4.75;100.00;94278.53;5061884;28;21117;-75
2022/11/16 03:23:12;;;;;;;119.17;55.30;;;;;;;4.77;100.00;94271.41;5062345;28;20203;-76
2022/11/16 03:25:45;;;;;;;120.30;53.87;;;;;;;4.69;100.00;94263.88;5062366;28;20203;-77
2022/11/16 03:28:26;;;;;;;122.23;52.97;;;;;;;4.72;100.00;94272.00;5062445;28;20654;-76
2022/11/16 03:30:58;;;;;;;112.63;51.43;;;;;;;4.73;100.00;94271.03;5064551;28;20276;-77
2022/11/16 03:33:30;;;;;;;125.20;52.00;;;;;;;4.79;100.00;94265.09;5062045;28;20205;-76
2022/11/16 03:36:03;;;;;;;121.70;52.40;;;;;;;4.81;100.00;94264.91;5062934;28;20252;-78
2022/11/16 03:38:32;;;;;;;123.43;52.90;;;;;;;4.75;100.00;94271.63;5061554;28;20188;-77
2022/11/16 03:41:03;;;;;;;110.77;50.37;;;;;;;4.81;100.00;94270.06;5060314;28;20747;-77
2022/11/16 03:43:31;;;;;;;107.80;50.80;;;;;;;4.75;100.00;94257.94;5062948;28;20197;-76
2022/11/16 03:46:00;;;;;;;120.13;53.20;;;;;;;4.76;100.00;94275.75;5060236;28;20611;-76
2022/11/16 03:48:33;;;;;;;124.43;52.93;;;;;;;4.65;100.00;94258.28;5060662;28;20202;-75
2022/11/16 03:51:00;;;;;;;119.80;52.33;;;;;;;4.77;100.00;94274.00;5061631;28;20704;-78
2022/11/16 03:53:27;;;;;;;143.00;55.63;;;;;;;4.69;100.00;94267.22;5062669;28;20215;-77
2022/11/16 03:55:54;;;;;;;130.07;52.93;;;;;;;4.69;100.00;94264.66;5063271;28;20219;-76
2022/11/16 03:58:21;;;;;;;137.47;52.80;;;;;;;4.67;100.00;94264.06;5060271;28;20208;-77
2022/11/16 04:00:48;;;;;;;128.47;55.63;;;;;;;4.60;100.00;94255.50;5060950;28;20203;-77
2022/11/16 04:03:16;;;;;;;145.20;56.20;;;;;;;4.52;100.00;94245.38;5060969;28;21638;-77
2022/11/16 04:25:08;;;;;;;141.43;61.07;;;;;;;4.39;100.00;94229.88;5063630;28;20193;-77
2022/11/16 04:30:20;;;;;;;146.47;60.47;;;;;;;4.47;100.00;94224.59;5059555;28;21104;-76
2022/11/16 04:38:16;;;;;;;158.97;62.10;;;;;;;4.44;100.00;94212.13;5061318;28;21568;-79
2022/11/16 04:40:43;;;;;;;152.77;63.93;;;;;;;4.55;100.00;94217.50;5063991;28;20206;-76
2022/11/16 04:43:09;;;;;;;168.10;67.33;;;;;;;4.53;100.00;94219.44;5060187;28;20695;-77
2022/11/16 04:48:20;;;;;;;167.27;66.27;;;;;;;4.61;100.00;94230.59;5060566;28;20224;-77
2022/11/16 04:50:48;;;;;;;178.83;73.67;;;;;;;4.58;100.00;94227.41;5060950;28;20849;-78
2022/11/16 04:53:15;;;;;;;191.70;76.27;;;;;;;4.64;100.00;94219.91;5062658;28;20203;-76
2022/11/16 04:55:42;;;;;;;203.53;76.20;;;;;;;4.65;100.00;94221.50;5060299;28;20997;-76
2022/11/16 04:58:09;;;;;;;215.03;79.57;;;;;;;4.60;100.00;94222.06;5059907;28;20204;-76
2022/11/16 05:00:36;;;;;;;224.20;80.77;;;;;;;4.40;100.00;94203.97;5060250;28;20199;-76
2022/11/16 05:03:04;;;;;;;253.10;86.97;;;;;;;4.44;100.00;94207.72;5062701;28;20197;-76
2022/11/16 05:05:30;;;;;;;241.80;92.17;;;;;;;4.50;100.00;94214.69;5061255;28;20201;-77
2022/11/16 05:07:59;;;;;;;230.23;89.20;;;;;;;4.54;100.00;94215.91;5060454;28;20196;-76
2022/11/16 05:10:26;;;;;;;254.20;93.50;;;;;;;4.59;100.00;94213.53;5059675;28;20199;-77
2022/11/16 05:12:52;;;;;;;255.63;89.33;;;;;;;4.54;100.00;94205.63;5060807;28;20202;-77
2022/11/16 05:15:19;;;;;;;252.17;90.33;;;;;;;4.54;100.00;94197.91;5062214;28;20233;-76
2022/11/16 05:17:46;;;;;;;259.87;92.07;;;;;;;4.65;100.00;94201.69;5060829;28;20324;-76
2022/11/16 05:22:59;;;;;;;267.70;94.30;;;;;;;4.59;100.00;94202.44;5058908;28;20581;-76
2022/11/16 05:25:25;;;;;;;272.87;94.27;;;;;;;4.64;100.00;94207.03;5061251;28;20676;-76
2022/11/16 05:27:52;;;;;;;250.60;90.33;;;;;;;4.53;100.00;94198.88;5063049;28;20673;-76
2022/11/16 05:30:19;;;;;;;276.73;91.93;;;;;;;4.56;100.00;94211.34;5059861;28;20202;-76
2022/11/16 05:32:46;;;;;;;289.33;104.80;;;;;;;4.58;100.00;94211.19;5061003;28;20199;-79
2022/11/16 05:35:13;;;;;;;286.23;97.80;;;;;;;4.66;100.00;94211.00;5060529;28;20582;-77
2022/11/16 05:37:40;;;;;;;255.23;92.80;;;;;;;4.74;100.00;94207.47;5062456;28;20218;-77
2022/11/16 05:40:09;;;;;;;246.93;88.90;;;;;;;4.65;100.00;94198.34;5059852;28;20202;-77
2022/11/16 05:42:36;;;;;;;255.67;88.57;;;;;;;4.86;100.00;94203.34;5062259;28;20242;-75
2022/11/16 05:45:03;;;;;;;229.03;81.53;;;;;;;4.95;100.00;94204.75;5064231;28;20191;-75
2022/11/16 05:47:30;;;;;;;200.73;75.90;;;;;;;4.90;100.00;94200.19;5063196;28;20199;-76
2022/11/16 05:49:57;;;;;;;191.03;75.90;;;;;;;4.98;100.00;94205.16;5065711;28;20226;-76
2022/11/16 05:52:24;;;;;;;212.70;80.17;;;;;;;5.07;100.00;94210.94;5063772;28;20682;-75
2022/11/16 05:54:50;;;;;;;242.50;85.07;;;;;;;5.16;100.00;94209.75;5064379;28;20697;-75
2022/11/16 05:57:19;;;;;;;232.77;84.63;;;;;;;5.18;100.00;94201.81;5064028;28;20269;-76
2022/11/16 05:59:59;;;;;;;211.63;81.07;;;;;;;5.13;100.00;94207.56;5067077;28;20661;-79
2022/11/16 06:02:26;;;;;;;210.33;79.60;;;;;;;5.19;100.00;94204.22;5063758;28;20211;-76
2022/11/16 06:04:53;;;;;;;242.60;90.37;;;;;;;5.21;100.00;94206.59;5064540;28;20199;-75
2022/11/16 06:07:19;;;;;;;240.33;90.13;;;;;;;5.28;100.00;94203.03;5063827;28;20215;-76
2022/11/16 06:09:46;;;;;;;263.43;94.03;;;;;;;5.30;100.00;94210.56;5063319;28;20248;-75
2022/11/16 06:12:13;;;;;;;237.43;90.60;;;;;;;5.31;100.00;94212.16;5065001;28;20207;-76
2022/11/16 06:14:41;;;;;;;260.30;93.30;;;;;;;5.38;100.00;94211.16;5063205;28;20274;-76
2022/11/16 06:17:09;;;;;;;258.57;88.67;;;;;;;5.48;100.00;94208.22;5063746;28;20682;-75
2022/11/16 06:19:36;;;;;;;243.83;88.60;;;;;;;5.55;100.00;94214.16;5062909;28;20208;-76
2022/11/16 06:22:02;;;;;;;244.10;84.50;;;;;;;5.54;100.00;94203.03;5069273;28;20204;-82
2022/11/16 06:24:29;;;;;;;242.40;85.90;;;;;;;5.52;100.00;94206.81;5070180;28;20203;-81
2022/11/16 06:26:56;;;;;;;253.67;86.87;;;;;;;5.59;100.00;94212.78;5066073;28;20200;-76
2022/11/16 06:29:23;;;;;;;250.57;90.47;;;;;;;5.58;100.00;94209.41;5063235;28;20612;-77
2022/11/16 06:31:51;;;;;;;251.27;85.60;;;;;;;5.53;100.00;94206.63;5065481;28;20208;-77
2022/11/16 06:34:18;;;;;;;235.53;87.03;;;;;;;5.61;100.00;94209.00;5065210;28;20201;-76
2022/11/16 06:36:44;;;;;;;230.53;83.30;;;;;;;5.60;100.00;94193.72;5064319;28;20237;-76
2022/11/16 06:39:12;;;;;;;249.77;86.63;;;;;;;5.58;100.00;94193.13;5063619;28;20219;-76
2022/11/16 06:41:39;;;;;;;255.03;86.10;;;;;;;5.69;100.00;94213.16;5063266;28;20208;-77
2022/11/16 06:44:06;;;;;;;248.30;87.03;;;;;;;5.72;100.00;94208.41;5065669;28;20619;-76
2022/11/16 06:46:33;;;;;;;239.83;84.27;;;;;;;5.70;100.00;94200.09;5063298;28;20995;-76
2022/11/16 06:49:01;;;;;;;239.83;83.83;;;;;;;5.83;100.00;94211.38;5063562;28;20650;-76
2022/11/16 06:51:27;;;;;;;235.67;83.60;;;;;;;5.90;100.00;94207.81;5065421;28;20204;-80
2022/11/16 06:53:54;;;;;;;237.17;80.30;;;;;;;5.95;100.00;94208.00;5070248;28;20205;-80
2022/11/16 06:56:21;;;;;;;229.13;81.43;;;;;;;6.02;100.00;94208.00;5068808;28;20345;-81
2022/11/16 06:58:48;;;;;;;217.80;78.53;;;;;;;5.99;100.00;94206.63;5066769;28;21210;-80
2022/11/16 07:01:15;;;;;;;212.30;75.70;;;;;;;6.06;100.00;94204.06;5067445;28;20658;-82
2022/11/16 07:03:41;;;;;;;227.53;78.43;;;;;;;6.05;100.00;94190.34;5067752;28;20205;-81
2022/11/16 07:06:11;;;;;;;208.47;75.33;;;;;;;6.12;100.00;94198.84;5069397;28;20204;-80
2022/11/16 07:08:39;;;;;;;218.30;77.63;;;;;;;6.13;100.00;94202.22;5067135;28;20205;-82
2022/11/16 07:11:07;;;;;;;199.73;70.03;;;;;;;6.19;100.00;94196.28;5067568;28;20212;-81
2022/11/16 07:13:35;;;;;;;179.57;66.20;;;;;;;6.16;100.00;94183.78;5064179;28;20590;-81
2022/11/16 07:16:02;;;;;;;172.23;61.93;;;;;;;6.31;100.00;94204.97;5065268;28;20611;-81
2022/11/16 07:18:29;;;;;;;157.77;58.47;;;;;;;6.31;100.00;94197.22;5064752;28;20201;-83
2022/11/16 07:20:56;;;;;;;157.17;57.40;;;;;;;6.35;100.00;94195.81;5064871;28;20205;-81
2022/11/16 07:23:24;;;;;;;163.07;58.63;;;;;;;6.37;100.00;94201.59;5066261;28;20209;-82
2022/11/16 07:25:51;;;;;;;137.80;55.57;;;;;;;6.38;100.00;94198.00;5068859;28;20209;-82
2022/11/16 07:28:18;;;;;;;144.40;54.70;;;;;;;6.43;100.00;94189.66;5069385;28;20260;-82
2022/11/16 07:30:45;;;;;;;159.27;57.27;;;;;;;6.48;100.00;94182.88;5068296;28;20204;-83
2022/11/16 07:33:12;;;;;;;133.77;54.47;;;;;;;6.60;100.00;94191.59;5068074;28;20208;-82
2022/11/16 07:35:39;;;;;;;147.57;54.90;;;;;;;6.70;100.00;94186.75;5068003;28;20233;-83
2022/11/16 07:38:05;;;;;;;125.03;51.23;;;;;;;6.69;100.00;94184.41;5070051;28;20215;-78
2022/11/16 07:40:34;;;;;;;140.20;55.73;;;;;;;6.73;100.00;94186.34;5065897;28;20683;-82
2022/11/16 07:43:00;;;;;;;151.17;55.60;;;;;;;6.77;100.00;94190.13;5063161;28;20205;-77
2022/11/16 07:45:27;;;;;;;147.43;56.30;;;;;;;6.83;100.00;94186.72;5061925;28;20220;-76
2022/11/16 07:47:54;;;;;;;144.90;58.57;;;;;;;6.88;100.00;94186.09;5064414;28;20193;-76
2022/11/16 07:50:23;;;;;;;163.90;58.17;;;;;;;6.88;100.00;94183.50;5062165;28;21203;-76
2022/11/16 07:52:54;;;;;;;163.87;58.50;;;;;;;6.94;100.00;94177.50;5062335;28;20201;-76
2022/11/16 07:55:23;;;;;;;166.47;57.03;;;;;;;7.00;100.00;94181.84;5062246;28;20320;-76
2022/11/16 07:57:52;;;;;;;152.73;57.20;;;;;;;7.00;100.00;94175.88;5061372;28;20378;-76
2022/11/16 08:00:19;;;;;;;162.10;58.53;;;;;;;7.07;100.00;94185.16;5062746;28;20212;-77
2022/11/16 08:02:46;;;;;;;158.53;57.23;;;;;;;7.22;100.00;94182.31;5062589;28;20462;-77
2022/11/16 08:05:13;;;;;;;158.37;58.73;;;;;;;7.30;100.00;94180.25;5060362;28;20198;-77
2022/11/16 08:07:40;;;;;;;176.27;60.50;;;;;;;7.31;100.00;94174.09;5061347;28;20198;-75
2022/11/16 08:10:08;;;;;;;175.67;59.83;;;;;;;7.26;100.00;94161.03;5062136;28;20595;-76
2022/11/16 08:12:35;;;;;;;165.47;59.97;;;;;;;7.43;100.00;94169.03;5063032;28;20217;-76
2022/11/16 08:15:03;;;;;;;146.97;57.97;;;;;;;7.41;100.00;94169.28;5062291;28;20575;-76
2022/11/16 08:17:31;;;;;;;162.13;60.27;;;;;;;7.36;100.00;94153.56;5061152;28;20221;-77
2022/11/16 08:19:57;;;;;;;166.10;62.20;;;;;;;7.43;100.00;94161.28;5059977;28;20914;-76
2022/11/16 08:22:24;;;;;;;161.73;60.40;;;;;;;7.56;100.00;94150.06;5064034;28;20209;-78
2022/11/16 08:24:51;;;;;;;167.47;63.07;;;;;;;7.66;100.00;94158.13;5066652;28;20226;-81
2022/11/16 08:27:18;;;;;;;163.10;59.97;;;;;;;7.60;100.00;94148.63;5067514;28;20247;-82
2022/11/16 08:29:45;;;;;;;153.80;58.10;;;;;;;7.65;100.00;94139.22;5066942;28;20194;-81
2022/11/16 08:32:13;;;;;;;153.50;60.23;;;;;;;7.73;100.00;94138.19;5067829;28;20193;-82
2022/11/16 08:34:40;;;;;;;149.53;61.07;;;;;;;7.71;100.00;94150.50;5068051;28;20213;-82
2022/11/16 08:37:07;;;;;;;141.67;57.63;;;;;;;7.85;100.00;94147.59;5066285;28;20728;-83
2022/11/16 08:39:33;;;;;;;142.97;56.80;;;;;;;7.97;100.00;94145.88;5062797;28;20626;-82
2022/11/16 08:42:00;;;;;;;130.83;57.80;;;;;;;7.98;100.00;94136.34;5066163;28;20671;-83
2022/11/16 08:44:27;;;;;;;141.20;58.77;;;;;;;8.19;100.00;94140.31;5069621;28;20220;-82
2022/11/16 08:46:54;;;;;;;137.40;57.57;;;;;;;8.11;100.00;94146.53;5068229;28;20198;-82
2022/11/16 08:49:22;;;;;;;131.33;57.10;;;;;;;8.21;100.00;94139.06;5067063;28;20237;-82
2022/11/16 08:51:49;;;;;;;134.70;54.37;;;;;;;8.18;100.00;94136.13;5066282;28;21497;-81
2022/11/16 08:54:16;;;;;;;132.47;54.57;;;;;;;8.15;100.00;94146.91;5067981;28;20624;-83
2022/11/16 08:56:43;;;;;;;129.27;55.43;;;;;;;7.94;100.00;94135.16;5068095;28;20251;-84
2022/11/16 08:59:10;;;;;;;117.77;50.70;;;;;;;7.72;100.00;94137.38;5066645;28;20205;-84
2022/11/16 09:01:36;;;;;;;116.57;52.93;;;;;;;7.57;100.00;94141.28;5066966;28;20216;-86
2022/11/16 09:04:03;;;;;;;130.83;53.40;;;;;;;7.58;100.00;94129.94;5067494;28;20338;-85
2022/11/16 09:06:32;;;;;;;116.87;50.43;;;;;;;7.87;100.00;94132.66;5067440;28;20585;-85
2022/11/16 09:08:58;;;;;;;125.30;52.83;;;;;;;8.12;100.00;94131.81;5065397;28;20284;-87
2022/11/16 09:11:25;;;;;;;119.70;50.50;;;;;;;8.28;100.00;94126.09;5066786;28;20197;-88
2022/11/16 09:13:54;;;;;;;111.60;48.37;;;;;;;8.11;100.00;94125.84;5062530;28;20223;-88
2022/11/16 09:16:22;;;;;;;111.30;48.67;;;;;;;7.91;100.00;94114.91;5068081;28;20228;-85
2022/11/16 09:18:51;;;;;;;114.50;48.13;;;;;;;7.92;100.00;94116.50;5071723;28;20311;-86
2022/11/16 09:21:19;;;;;;;114.03;48.50;;;;;;;8.14;100.00;94107.28;5070679;28;20220;-85
2022/11/16 09:23:48;;;;;;;112.13;48.47;;;;;;;8.38;100.00;94093.50;5070873;28;20288;-86
2022/11/16 09:26:19;;;;;;;117.73;48.03;;;;;;;8.71;100.00;94087.91;5070588;28;20232;-84
2022/11/16 09:28:46;;;;;;;111.07;47.73;;;;;;;9.21;100.00;94088.34;5071939;28;20225;-86
2022/11/16 09:31:13;;;;;;;100.87;42.17;;;;;;;9.64;100.00;94081.06;5071237;28;20244;-86
2022/11/16 09:33:39;;;;;;;90.90;41.57;;;;;;;10.09;100.00;94085.66;5070631;28;20216;-86
2022/11/16 09:36:08;;;;;;;106.00;42.80;;;;;;;10.33;100.00;94084.63;5070503;28;20229;-83
2022/11/16 09:38:39;;;;;;;104.10;43.47;;;;;;;10.74;100.00;94075.75;5071105;28;20204;-81
2022/11/16 09:41:26;;;;;;;96.17;40.93;;;;;;;11.09;98.65;94083.41;5070953;28;20201;-82
2022/11/16 09:44:01;;;;;;;100.10;40.87;;;;;;;11.67;96.57;94078.59;5069908;28;20201;-82
2022/11/16 09:46:33;;;;;;;96.33;41.80;;;;;;;12.45;94.05;94073.13;5065605;28;20279;-76
2022/11/16 09:49:03;;;;;;;94.60;41.03;;;;;;;13.41;89.11;94071.50;5062449;28;20227;-83
2022/11/16 09:51:33;;;;;;;86.67;40.97;;;;;;;14.58;84.42;94072.94;5064511;28;20272;-76
2022/11/16 09:54:04;;;;;;;87.97;42.50;;;;;;;15.50;79.51;94072.88;5064613;28;20217;-76
2022/11/16 09:56:37;;;;;;;89.83;41.00;;;;;;;16.19;76.31;94057.31;5063548;28;20703;-76
2022/11/16 09:59:09;;;;;;;90.40;41.60;;;;;;;16.31;74.27;94063.03;5053956;28;20190;-76
2022/11/16 10:01:41;;;;;;;86.67;41.33;;;;;;;16.82;73.44;94052.38;5062640;28;20193;-76
2022/11/16 10:04:12;;;;;;;89.00;40.93;;;;;;;17.73;70.20;94057.78;5067344;28;20197;-76
2022/11/16 10:06:47;;;;;;;88.43;40.70;;;;;;;18.52;67.28;94053.84;5069220;28;20212;-76
2022/11/16 10:09:14;;;;;;;88.80;41.57;;;;;;;19.09;65.11;94045.72;5066347;28;20197;-76
2022/11/16 10:11:56;;;;;;;85.93;42.30;;;;;;;19.45;63.85;94045.97;5067875;28;20205;-76
2022/11/16 10:14:39;;;;;;;81.20;40.27;;;;;;;20.19;61.42;94041.56;5067442;28;20190;-76
2022/11/16 10:17:17;;;;;;;81.10;41.60;;;;;;;20.50;59.45;94036.50;5066999;28;20201;-76
2022/11/16 10:19:53;;;;;;;76.28;39.72;;;;;;;20.95;57.95;94031.06;5067686;28;20194;-76
2022/11/16 10:22:34;;;;;;;78.13;39.75;;;;;;;21.29;56.51;94027.97;5069372;28;20235;-77
2022/11/16 10:25:11;;;;;;;69.03;38.63;;;;;;;20.80;57.58;94028.78;5068116;28;20185;-76
2022/11/16 10:27:54;;;;;;;72.13;38.78;;;;;;;20.66;57.63;94024.59;5065043;28;20268;-76
2022/11/16 10:30:22;;;;;;;70.00;38.08;;;;;;;20.64;57.71;94016.94;5066889;28;20209;-76
2022/11/16 10:32:54;;;;;;;72.88;39.03;;;;;;;20.93;56.61;94009.44;5066964;28;20851;-77
2022/11/16 10:35:27;;;;;;;72.25;39.45;;;;;;;20.78;56.65;94011.63;5069364;28;20198;-76
2022/11/16 10:37:57;;;;;;;81.25;41.13;;;;;;;20.30;57.36;94004.16;5066478;28;20296;-76
2022/11/16 10:40:28;;;;;;;77.20;40.47;;;;;;;20.31;58.20;94004.94;5067670;28;20636;-77
2022/11/16 10:43:04;;;;;;;77.30;39.05;;;;;;;20.77;56.98;94007.44;5067740;28;20193;-76
2022/11/16 10:45:38;;;;;;;72.82;40.92;;;;;;;20.77;56.29;94005.59;5066305;28;20200;-76
2022/11/16 10:48:17;;;;;;;80.57;40.92;;;;;;;21.02;56.45;93983.09;5069665;28;20267;-76
2022/11/16 10:50:47;;;;;;;73.90;39.53;;;;;;;21.13;55.84;94002.16;5067161;28;20667;-76
2022/11/16 10:53:15;;;;;;;80.95;39.97;;;;;;;20.07;57.51;93996.41;5066315;28;20201;-77
2022/11/16 10:55:42;;;;;;;74.72;39.17;;;;;;;19.41;60.00;93983.59;5066550;28;20197;-77
2022/11/16 10:58:10;;;;;;;72.97;40.47;;;;;;;19.11;60.97;93979.56;5066450;28;20226;-75
2022/11/16 11:00:40;;;;;;;74.88;39.60;;;;;;;18.18;63.49;93966.34;5067232;28;20558;-81
2022/11/16 11:03:09;;;;;;;77.87;39.63;;;;;;;16.64;68.99;93967.19;5067317;28;20198;-75
2022/11/16 11:05:37;;;;;;;71.30;37.73;;;;;;;15.90;71.93;93951.53;5063830;28;20655;-76
2022/11/16 11:08:06;;;;;;;75.43;37.03;;;;;;;16.22;72.30;93941.41;5066488;28;20193;-76
2022/11/16 11:10:35;;;;;;;78.27;40.07;;;;;;;16.43;70.54;93948.13;5066213;28;20201;-76
2022/11/16 11:13:24;;;;;;;73.23;37.23;;;;;;;16.33;70.45;93945.53;5066013;28;20668;-76
2022/11/16 11:16:16;;;;;;;70.20;37.57;;;;;;;16.33;70.61;93929.81;5062152;28;20201;-77
2022/11/16 11:18:43;;;;;;;68.13;35.60;;;;;;;16.71;70.46;93933.53;5065644;28;20193;-75
2022/11/16 11:21:17;;;;;;;76.67;36.57;;;;;;;17.14;68.75;93928.50;5065286;28;20292;-76
2022/11/16 11:23:47;;;;;;;68.37;35.53;;;;;;;17.31;67.64;93921.00;5064367;28;20209;-75
2022/11/16 11:26:31;;;;;;;94.73;48.70;;;;;;;17.00;68.11;93923.06;5067530;28;20194;-74
2022/11/16 11:29:01;;;;;;;59.53;33.63;;;;;;;16.54;69.64;93913.97;5067749;28;20189;-75
2022/11/16 11:31:35;;;;;;;69.67;35.40;;;;;;;15.18;74.20;93891.72;5056417;28;20694;-76
2022/11/16 11:34:15;;;;;;;63.60;34.37;;;;;;;14.11;78.86;93905.75;5064283;28;20802;-78
2022/11/16 11:36:46;;;;;;;68.33;36.30;;;;;;;13.93;81.22;93893.94;5065580;28;20711;-77
2022/11/16 11:39:36;;;;;;;65.27;33.57;;;;;;;14.01;80.90;93892.66;5064777;28;20198;-76
2022/11/16 11:42:20;;;;;;;70.27;35.43;;;;;;;14.10;80.73;93885.88;5062390;28;20193;-76
2022/11/16 11:44:53;;;;;;;61.93;33.40;;;;;;;14.05;79.89;93884.03;5064774;28;20219;-75
2022/11/16 11:47:37;;;;;;;64.57;34.33;;;;;;;13.97;80.64;93883.75;5065567;28;20205;-79
2022/11/16 11:50:11;;;;;;;60.70;32.47;;;;;;;13.84;81.11;93876.41;5066652;28;20244;-83
2022/11/16 11:52:44;;;;;;;58.77;32.93;;;;;;;13.69;81.38;93868.53;5072517;28;20208;-84
2022/11/16 11:55:17;;;;;;;66.20;33.37;;;;;;;13.53;82.74;93858.00;5069990;28;20213;-83